createdAt,value
2019-04-05T00:00:49.877Z,18.97
2019-04-05T00:03:19.401Z,19.33
2019-04-05T00:05:48.759Z,19.67
2019-04-05T00:08:18.097Z,19.53
2019-04-05T00:10:47.738Z,19.97
2019-04-05T00:13:17.149Z,19.60
2019-04-05T00:15:46.614Z,18.63
2019-04-05T00:18:16.158Z,18.77
2019-04-05T00:20:45.564Z,19.37
2019-04-05T00:23:14.830Z,18.53
2019-04-05T00:25:44.271Z,18.20
2019-04-05T00:28:13.610Z,18.50
2019-04-05T00:30:42.914Z,16.50
2019-04-05T00:33:12.306Z,19.03
2019-04-05T00:35:41.662Z,18.03
2019-04-05T00:38:11.106Z,18.93
2019-04-05T00:40:40.705Z,17.97
2019-04-05T00:43:10.107Z,19.27
2019-04-05T00:45:39.420Z,16.93
2019-04-05T00:48:08.833Z,17.03
2019-04-05T00:50:38.544Z,17.97
2019-04-05T00:53:07.845Z,17.83
2019-04-05T00:55:37.661Z,17.87
2019-04-05T00:58:07.032Z,18.23
2019-04-05T01:00:36.598Z,17.80
2019-04-05T01:03:06.164Z,16.67
2019-04-05T01:05:35.613Z,17.47
2019-04-05T01:08:05.022Z,18.33
2019-04-05T01:10:34.643Z,17.93
2019-04-05T01:13:04.225Z,18.10
2019-04-05T01:15:40.882Z,18.77
2019-04-05T01:18:05.674Z,18.17
2019-04-05T01:20:38.326Z,17.60
2019-04-05T01:23:07.959Z,15.87
2019-04-05T01:25:37.953Z,18.00
2019-04-05T01:28:07.580Z,18.17
2019-04-05T01:30:37.152Z,18.87
2019-04-05T01:33:06.528Z,17.23
2019-04-05T01:35:35.871Z,16.77
2019-04-05T01:38:05.401Z,16.23
2019-04-05T01:40:36.584Z,17.30
2019-04-05T01:43:06.490Z,16.93
2019-04-05T01:45:36.081Z,16.40
2019-04-05T01:48:05.645Z,16.53
2019-04-05T01:50:35.190Z,17.03
2019-04-05T01:53:04.564Z,15.47
2019-04-05T01:55:33.888Z,16.10
2019-04-05T01:58:03.728Z,15.57
2019-04-05T02:00:33.232Z,15.60
2019-04-05T02:03:02.524Z,15.90
2019-04-05T02:05:31.929Z,16.60
2019-04-05T02:08:01.223Z,16.20
2019-04-05T02:10:30.588Z,17.77
2019-04-05T02:13:00.196Z,17.47
2019-04-05T02:15:31.663Z,17.17
2019-04-05T02:18:01.345Z,18.57
2019-04-05T02:20:30.891Z,19.17
2019-04-05T02:23:00.242Z,18.53
2019-04-05T02:25:29.813Z,16.23
2019-04-05T02:27:59.086Z,18.67
2019-04-05T02:30:28.794Z,18.17
2019-04-05T02:32:58.236Z,19.40
2019-04-05T02:35:27.816Z,19.23
2019-04-05T02:37:57.161Z,19.27
2019-04-05T02:40:27.255Z,20.43
2019-04-05T02:42:58.606Z,21.70
2019-04-05T02:45:31.523Z,20.90
2019-04-05T02:48:04.419Z,21.97
2019-04-05T02:50:36.674Z,21.73
2019-04-05T02:53:08.880Z,19.33
2019-04-05T02:55:40.372Z,21.37
2019-04-05T02:58:10.977Z,21.70
2019-04-05T03:00:41.113Z,23.90
2019-04-05T03:03:10.776Z,23.90
2019-04-05T03:05:40.594Z,22.97
2019-04-05T03:08:10.032Z,21.07
2019-04-05T03:11:07.924Z,22.30
2019-04-05T03:13:46.866Z,23.23
2019-04-05T03:16:21.080Z,23.97
2019-04-05T03:18:59.227Z,23.47
2019-04-05T03:21:30.371Z,20.40
2019-04-05T03:24:03.193Z,21.00
2019-04-05T03:26:35.355Z,22.63
2019-04-05T03:29:08.094Z,22.23
2019-04-05T03:31:37.982Z,21.87
2019-04-05T03:34:08.113Z,22.07
2019-04-05T03:36:38.647Z,22.30
2019-04-05T03:39:08.579Z,21.17
2019-04-05T03:41:37.943Z,22.77
2019-04-05T03:44:08.786Z,22.20
2019-04-05T03:46:38.220Z,21.13
2019-04-05T03:49:07.717Z,20.90
2019-04-05T03:51:37.264Z,20.10
2019-04-05T03:54:07.049Z,22.07
2019-04-05T03:56:38.310Z,23.80
2019-04-05T03:59:08.168Z,23.33
2019-04-05T04:01:37.583Z,21.97
2019-04-05T04:04:06.884Z,22.97
2019-04-05T04:06:36.525Z,23.27
2019-04-05T04:09:07.194Z,19.33
2019-04-05T04:11:37.385Z,21.43
2019-04-05T04:14:07.421Z,22.10
2019-04-05T04:16:37.326Z,21.37
2019-04-05T04:19:06.767Z,21.70
2019-04-05T04:21:42.753Z,19.20
2019-04-05T04:24:12.385Z,22.47
2019-04-05T04:26:43.148Z,21.07
2019-04-05T04:29:13.688Z,21.13
2019-04-05T04:31:43.075Z,20.00
2019-04-05T04:34:12.778Z,22.37
2019-04-05T04:36:42.646Z,20.83
2019-04-05T04:39:12.347Z,21.47
2019-04-05T04:41:41.801Z,19.07
2019-04-05T04:44:11.335Z,19.83
2019-04-05T04:46:40.780Z,20.03
2019-04-05T04:49:10.391Z,21.60
2019-04-05T04:51:40.141Z,21.30
2019-04-05T04:54:09.702Z,21.50
2019-04-05T04:56:39.305Z,21.00
2019-04-05T04:59:09.044Z,20.77
2019-04-05T05:01:38.465Z,21.17
2019-04-05T05:04:08.438Z,20.90
2019-04-05T05:06:38.007Z,22.30
2019-04-05T05:09:07.850Z,22.53
2019-04-05T05:11:37.981Z,18.93
2019-04-05T05:14:07.692Z,23.30
2019-04-05T05:16:37.231Z,20.20
2019-04-05T05:19:07.077Z,22.30
2019-04-05T05:21:37.021Z,22.57
2019-04-05T05:24:06.612Z,23.40
2019-04-05T05:26:36.001Z,23.50
2019-04-05T05:29:05.594Z,23.70
2019-04-05T05:31:35.153Z,22.37
2019-04-05T05:34:05.061Z,21.63
2019-04-05T05:36:34.656Z,23.83
2019-04-05T05:39:06.056Z,23.57
2019-04-05T05:41:35.789Z,22.27
2019-04-05T05:44:05.281Z,22.07
2019-04-05T05:46:34.649Z,23.27
2019-04-05T05:49:04.258Z,23.50
2019-04-05T05:51:34.030Z,23.70
2019-04-05T05:54:03.305Z,21.80
2019-04-05T05:56:32.721Z,21.70
2019-04-05T05:59:02.033Z,23.33
2019-04-05T06:01:31.320Z,21.40
2019-04-05T06:04:00.828Z,21.73
2019-04-05T06:06:30.220Z,23.37
2019-04-05T06:08:59.503Z,21.80
2019-04-05T06:11:28.968Z,22.70
2019-04-05T06:13:58.339Z,21.47
2019-04-05T06:16:27.639Z,21.73
2019-04-05T06:18:56.967Z,22.20
2019-04-05T06:21:26.293Z,20.53
2019-04-05T06:23:55.514Z,22.30
2019-04-05T06:26:24.876Z,22.13
2019-04-05T06:28:54.344Z,22.47
2019-04-05T06:31:23.770Z,22.90
2019-04-05T06:33:53.055Z,21.97
2019-04-05T06:36:22.378Z,21.90
2019-04-05T06:38:51.643Z,22.90
2019-04-05T06:41:21.147Z,21.53
2019-04-05T06:43:50.467Z,21.83
2019-04-05T06:46:19.768Z,22.27
2019-04-05T06:48:49.277Z,22.23
2019-04-05T06:51:18.649Z,22.87
2019-04-05T06:53:47.947Z,21.80
2019-04-05T06:56:17.478Z,20.17
2019-04-05T06:58:46.822Z,20.77
2019-04-05T07:01:16.235Z,21.17
2019-04-05T07:03:45.805Z,20.57
2019-04-05T07:06:15.129Z,20.87
2019-04-05T07:08:53.671Z,21.80
2019-04-05T07:11:15.566Z,21.63
2019-04-05T07:13:44.827Z,21.40
2019-04-05T07:16:14.127Z,22.03
2019-04-05T07:18:43.447Z,22.53
2019-04-05T07:21:12.789Z,22.77
2019-04-05T07:23:42.134Z,21.77
2019-04-05T07:26:11.409Z,21.20
2019-04-05T07:28:40.697Z,21.07
2019-04-05T07:31:09.980Z,20.93
2019-04-05T07:33:39.358Z,22.03
2019-04-05T07:36:08.737Z,21.83
2019-04-05T07:38:38.053Z,22.83
2019-04-05T07:41:07.391Z,20.87
2019-04-05T07:43:36.753Z,22.50
2019-04-05T07:46:06.004Z,22.40
2019-04-05T07:48:44.632Z,22.73
2019-04-05T07:51:07.200Z,22.73
2019-04-05T07:53:36.745Z,22.30
2019-04-05T07:56:06.039Z,22.33
2019-04-05T07:58:35.420Z,21.93
2019-04-05T08:01:06.409Z,22.53
2019-04-05T08:03:35.732Z,21.93
2019-04-05T08:06:05.197Z,23.40
2019-04-05T08:08:49.718Z,22.10
2019-04-05T08:11:19.317Z,22.13
2019-04-05T08:13:50.090Z,23.13
2019-04-05T08:16:19.425Z,23.27
2019-04-05T08:18:57.796Z,23.77
2019-04-05T08:21:19.980Z,25.50
2019-04-05T08:23:49.338Z,22.27
2019-04-05T08:26:18.713Z,22.77
2019-04-05T08:28:48.304Z,26.10
2019-04-05T08:31:17.606Z,26.30
2019-04-05T08:33:46.986Z,25.73
2019-04-05T08:36:16.528Z,26.50
2019-04-05T08:38:45.777Z,26.23
2019-04-05T08:41:15.107Z,28.07
2019-04-05T08:43:47.041Z,26.27
2019-04-05T08:46:15.717Z,27.17
2019-04-05T08:48:45.276Z,28.60
2019-04-05T08:51:14.760Z,28.30
2019-04-05T08:53:44.076Z,28.27
2019-04-05T08:56:13.453Z,29.50
2019-04-05T08:58:42.765Z,29.57
2019-04-05T09:01:12.049Z,27.47
2019-04-05T09:03:41.563Z,28.53
2019-04-05T09:06:11.196Z,31.03
2019-04-05T09:08:40.508Z,28.93
2019-04-05T09:11:09.865Z,28.10
2019-04-05T09:13:39.201Z,29.90
2019-04-05T09:16:11.515Z,29.23
2019-04-05T09:18:39.491Z,28.90
2019-04-05T09:21:10.219Z,30.50
2019-04-05T09:23:39.599Z,27.90
2019-04-05T09:26:09.155Z,29.83
2019-04-05T09:28:38.465Z,30.03
2019-04-05T09:31:07.776Z,30.00
2019-04-05T09:33:37.301Z,30.37
2019-04-05T09:36:06.601Z,32.73
2019-04-05T09:38:35.919Z,29.90
2019-04-05T09:41:05.498Z,30.57
2019-04-05T09:43:34.820Z,31.27
2019-04-05T09:46:04.219Z,31.50
2019-04-05T09:48:33.813Z,32.27
2019-04-05T09:51:03.229Z,31.57
2019-04-05T09:53:32.512Z,32.43
2019-04-05T09:56:02.103Z,31.20
2019-04-05T09:58:31.418Z,32.27
2019-04-05T10:01:00.767Z,33.50
2019-04-05T10:03:30.325Z,32.93
2019-04-05T10:05:59.611Z,32.90
2019-04-05T10:08:28.857Z,33.63
2019-04-05T10:10:58.699Z,33.80
2019-04-05T10:13:28.004Z,35.23
2019-04-05T10:15:57.346Z,34.13
2019-04-05T10:18:26.816Z,35.17
2019-04-05T10:20:56.204Z,36.07
2019-04-05T10:23:25.509Z,33.77
2019-04-05T10:25:54.867Z,34.77
2019-04-05T10:28:24.168Z,35.87
2019-04-05T10:30:53.471Z,35.70
2019-04-05T10:33:23.056Z,35.10
2019-04-05T10:35:52.393Z,35.40
2019-04-05T10:38:21.719Z,35.80
2019-04-05T10:40:51.176Z,36.80
2019-04-05T10:43:20.535Z,35.40
2019-04-05T10:45:49.852Z,35.23
2019-04-05T10:48:19.433Z,34.80
2019-04-05T10:50:48.735Z,36.33
2019-04-05T10:53:18.100Z,33.87
2019-04-05T10:55:47.633Z,33.33
2019-04-05T10:58:16.950Z,34.60
2019-04-05T11:00:46.215Z,35.40
2019-04-05T11:03:15.768Z,34.60
2019-04-05T11:05:45.086Z,33.70
2019-04-05T11:08:14.382Z,31.50
2019-04-05T11:10:43.922Z,36.00
2019-04-05T11:13:13.247Z,32.17
2019-04-05T11:15:42.542Z,36.37
2019-04-05T11:18:12.112Z,34.43
2019-04-05T11:20:41.383Z,34.57
2019-04-05T11:23:10.646Z,34.90
2019-04-05T11:25:40.211Z,35.73
2019-04-05T11:28:09.866Z,35.40
2019-04-05T11:30:47.056Z,36.60
2019-04-05T11:33:19.458Z,35.13
2019-04-05T11:35:47.784Z,37.60
2019-04-05T11:38:17.948Z,38.03
2019-04-05T11:40:47.748Z,39.40
2019-04-05T11:43:18.009Z,36.50
2019-04-05T11:45:48.528Z,37.60
2019-04-05T11:48:18.794Z,35.93
2019-04-05T11:50:48.149Z,37.87
2019-04-05T11:53:17.571Z,38.53
2019-04-05T11:55:47.078Z,37.90
2019-04-05T11:58:16.416Z,38.57
2019-04-05T12:01:07.931Z,38.77
2019-04-05T12:03:37.386Z,39.10
2019-04-05T12:06:06.689Z,39.07
2019-04-05T12:08:36.159Z,39.37
2019-04-05T12:11:05.648Z,39.10
2019-04-05T12:13:34.951Z,39.73
2019-04-05T12:16:06.007Z,39.03
2019-04-05T12:18:35.521Z,37.80
2019-04-05T12:21:05.819Z,38.87
2019-04-05T12:23:35.245Z,38.97
2019-04-05T12:26:05.005Z,37.53
2019-04-05T12:28:34.464Z,39.23
2019-04-05T12:31:03.782Z,39.47
2019-04-05T12:33:33.118Z,38.20
2019-04-05T12:36:02.443Z,39.60
2019-04-05T12:38:33.030Z,37.27
2019-04-05T12:41:03.904Z,37.63
2019-04-05T12:43:33.509Z,39.00
2019-04-05T12:46:03.094Z,38.60
2019-04-05T12:48:32.472Z,38.47
2019-04-05T12:51:03.822Z,37.87
2019-04-05T12:53:32.861Z,39.50
2019-04-05T12:56:02.328Z,39.37
2019-04-05T12:58:32.877Z,37.87
2019-04-05T13:01:02.523Z,38.83
2019-04-05T13:03:31.822Z,38.13
2019-04-05T13:06:01.084Z,38.93
2019-04-05T13:08:30.576Z,38.80
2019-04-05T13:10:59.954Z,39.07
2019-04-05T13:13:29.259Z,38.60
2019-04-05T13:15:59.483Z,38.20
2019-04-05T13:18:31.566Z,38.20
2019-04-05T13:21:00.999Z,37.47
2019-04-05T13:23:31.256Z,37.77
2019-04-05T13:26:00.512Z,38.47
2019-04-05T13:28:30.129Z,35.87
2019-04-05T13:30:59.450Z,37.20
2019-04-05T13:33:29.122Z,36.80
2019-04-05T13:35:58.738Z,37.00
2019-04-05T13:38:29.851Z,37.00
2019-04-05T13:41:01.222Z,35.77
2019-04-05T13:43:31.847Z,37.03
2019-04-05T13:46:01.173Z,37.23
2019-04-05T13:48:30.518Z,36.90
2019-04-05T13:50:59.937Z,36.10
2019-04-05T13:53:29.553Z,37.73
2019-04-05T13:55:58.859Z,36.43
2019-04-05T13:58:28.153Z,36.03
2019-04-05T14:00:57.733Z,35.93
2019-04-05T14:03:27.061Z,35.17
2019-04-05T14:05:56.459Z,34.97
2019-04-05T14:08:26.037Z,36.50
2019-04-05T14:10:55.346Z,35.43
2019-04-05T14:13:24.722Z,36.00
2019-04-05T14:15:54.244Z,33.97
2019-04-05T14:18:23.500Z,36.23
2019-04-05T14:20:52.748Z,37.03
2019-04-05T14:23:23.921Z,35.30
2019-04-05T14:25:53.357Z,33.90
2019-04-05T14:28:22.692Z,34.03
2019-04-05T14:30:52.335Z,34.93
2019-04-05T14:33:24.535Z,32.90
2019-04-05T14:35:54.729Z,32.70
2019-04-05T14:38:23.953Z,33.43
2019-04-05T14:40:53.218Z,33.47
2019-04-05T14:43:22.516Z,30.63
2019-04-05T14:45:51.891Z,33.97
2019-04-05T14:48:21.178Z,35.13
2019-04-05T14:50:50.666Z,33.70
2019-04-05T14:53:20.262Z,34.63
2019-04-05T14:55:49.653Z,34.37
2019-04-05T14:58:19.367Z,33.67
2019-04-05T15:00:48.834Z,32.57
2019-04-05T15:03:18.155Z,31.03
2019-04-05T15:05:47.417Z,35.20
2019-04-05T15:08:20.455Z,33.27
2019-04-05T15:10:47.979Z,33.53
2019-04-05T15:13:17.307Z,33.97
2019-04-05T15:15:46.762Z,33.67
2019-04-05T15:18:16.071Z,31.70
2019-04-05T15:20:46.143Z,31.90
2019-04-05T15:23:15.786Z,31.17
2019-04-05T15:25:45.183Z,31.90
2019-04-05T15:28:14.474Z,31.90
2019-04-05T15:30:43.898Z,32.47
2019-04-05T15:33:13.180Z,27.97
2019-04-05T15:35:42.580Z,31.53
2019-04-05T15:38:11.958Z,30.53
2019-04-05T15:40:41.252Z,31.47
2019-04-05T15:43:10.595Z,30.03
2019-04-05T15:45:42.556Z,29.50
2019-04-05T15:48:10.865Z,30.43
2019-04-05T15:50:40.184Z,29.90
2019-04-05T15:53:09.749Z,26.37
2019-04-05T15:55:39.112Z,28.70
2019-04-05T15:58:08.472Z,28.70
2019-04-05T16:00:45.140Z,27.93
2019-04-05T16:03:14.878Z,26.43
2019-04-05T16:05:45.979Z,26.63
2019-04-05T16:08:18.131Z,25.90
2019-04-05T16:10:47.815Z,27.00
2019-04-05T16:13:17.060Z,24.83
2019-04-05T16:15:46.414Z,24.57
2019-04-05T16:18:16.036Z,25.93
2019-04-05T16:20:45.364Z,25.47
2019-04-05T16:23:14.674Z,24.57
2019-04-05T16:25:44.223Z,23.37
2019-04-05T16:28:13.613Z,24.67
2019-04-05T16:30:43.021Z,24.00
2019-04-05T16:33:12.310Z,24.70
2019-04-05T16:35:41.561Z,23.97
2019-04-05T16:38:10.883Z,24.63
2019-04-05T16:40:40.318Z,23.37
2019-04-05T16:43:09.601Z,25.70
2019-04-05T16:45:38.962Z,22.80
2019-04-05T16:48:08.367Z,25.07
2019-04-05T16:50:37.735Z,25.17
2019-04-05T16:53:07.097Z,23.67
2019-04-05T16:55:36.487Z,26.57
2019-04-05T16:58:05.827Z,25.30
2019-04-05T17:00:35.305Z,24.77
2019-04-05T17:03:04.863Z,25.33
2019-04-05T17:05:34.189Z,25.57
2019-04-05T17:08:03.674Z,25.40
2019-04-05T17:10:33.867Z,24.97
2019-04-05T17:13:03.134Z,24.70
2019-04-05T17:15:32.417Z,25.23
2019-04-05T17:18:01.688Z,24.63
2019-04-05T17:20:30.958Z,25.10
2019-04-05T17:23:00.322Z,23.27
2019-04-05T17:25:29.720Z,24.13
2019-04-05T17:27:59.011Z,24.70
2019-04-05T17:30:28.492Z,24.87
2019-04-05T17:32:57.847Z,24.70
2019-04-05T17:35:27.124Z,25.90
2019-04-05T17:37:56.437Z,25.27
2019-04-05T17:40:25.765Z,26.00
2019-04-05T17:42:55.065Z,25.60
2019-04-05T17:45:24.364Z,25.27
2019-04-05T17:47:53.869Z,22.10
2019-04-05T17:50:31.774Z,24.80
2019-04-05T17:53:11.933Z,26.63
2019-04-05T17:55:32.617Z,25.70
2019-04-05T17:58:03.624Z,26.77
2019-04-05T18:00:33.003Z,26.30
2019-04-05T18:03:02.359Z,26.43
2019-04-05T18:05:31.930Z,25.33
2019-04-05T18:08:01.252Z,25.70
2019-04-05T18:10:30.550Z,26.30
2019-04-05T18:13:00.152Z,27.40
2019-04-05T18:15:29.479Z,25.33
2019-04-05T18:17:58.813Z,25.90
2019-04-05T18:20:28.491Z,25.57
2019-04-05T18:22:57.776Z,25.07
2019-04-05T18:25:27.030Z,25.33
2019-04-05T18:27:56.528Z,26.77
2019-04-05T18:30:25.788Z,25.30
2019-04-05T18:32:55.030Z,26.23
2019-04-05T18:35:24.411Z,24.40
2019-04-05T18:37:53.928Z,24.47
2019-04-05T18:40:23.230Z,24.20
2019-04-05T18:42:52.790Z,25.53
2019-04-05T18:45:22.100Z,24.70
2019-04-05T18:47:51.350Z,25.80
2019-04-05T18:50:21.072Z,25.80
2019-04-05T18:52:50.401Z,25.53
2019-04-05T18:55:19.947Z,24.90
2019-04-05T18:57:49.417Z,24.93
2019-04-05T19:00:18.981Z,23.70
2019-04-05T19:02:48.278Z,25.33
2019-04-05T19:05:18.249Z,24.63
2019-04-05T19:07:47.843Z,25.93
2019-04-05T19:10:17.168Z,25.10
2019-04-05T19:12:47.375Z,25.60
2019-04-05T19:15:16.647Z,24.60
2019-04-05T19:17:45.903Z,24.47
2019-04-05T19:20:15.399Z,24.73
2019-04-05T19:22:44.702Z,24.23
2019-04-05T19:25:14.027Z,23.63
2019-04-05T19:27:43.556Z,24.43
2019-04-05T19:50:22.572Z,22.93
2019-04-05T19:52:52.119Z,24.70
2019-04-05T19:55:21.410Z,23.60
2019-04-05T19:57:50.774Z,23.53
2019-04-05T20:00:20.463Z,22.97
2019-04-05T20:02:49.856Z,22.17
2019-04-05T20:05:19.258Z,22.47
2019-04-05T20:07:48.819Z,23.20
2019-04-05T20:10:18.161Z,22.03
2019-04-05T20:12:47.477Z,21.93
2019-04-05T20:15:17.233Z,21.70
2019-04-05T20:17:46.526Z,21.70
2019-04-05T20:20:16.146Z,20.83
2019-04-05T20:22:45.592Z,20.87
2019-04-05T20:25:14.863Z,20.37
2019-04-05T20:27:44.185Z,22.47
2019-04-05T20:30:13.848Z,22.13
2019-04-05T20:32:43.099Z,20.50
2019-04-05T20:35:12.854Z,20.10
2019-04-05T20:37:42.180Z,20.80
2019-04-05T20:40:11.487Z,20.87
2019-04-05T20:42:40.876Z,21.03
2019-04-05T20:45:10.244Z,20.13
2019-04-05T20:47:39.542Z,20.47
2019-04-05T20:50:08.973Z,19.97
2019-04-05T20:52:38.285Z,20.03
2019-04-05T20:55:07.689Z,20.73
2019-04-05T20:57:37.048Z,20.43
2019-04-05T21:00:07.619Z,20.90
2019-04-05T21:02:36.917Z,21.53
2019-04-05T21:05:06.648Z,20.73
2019-04-05T21:07:36.122Z,20.90
2019-04-05T21:10:06.505Z,19.90
2019-04-05T21:12:35.790Z,19.73
2019-04-05T21:15:05.964Z,19.50
2019-04-05T21:17:35.313Z,19.70
2019-04-05T21:20:05.589Z,20.87
2019-04-05T21:22:35.102Z,20.20
2019-04-05T21:25:04.602Z,20.57
2019-04-05T21:27:33.890Z,18.83
2019-04-05T21:30:03.238Z,19.30
2019-04-05T21:32:32.518Z,18.93
2019-04-05T21:35:01.938Z,18.23
2019-04-05T21:37:31.204Z,18.50
2019-04-05T21:40:00.477Z,19.60
2019-04-05T21:42:29.808Z,17.70
2019-04-05T21:44:59.240Z,19.13
2019-04-05T21:47:28.518Z,19.60
2019-04-05T21:49:58.313Z,20.20
2019-04-05T21:52:28.364Z,20.20
2019-04-05T21:54:57.644Z,19.87
2019-04-05T21:57:26.925Z,19.23
2019-04-05T21:59:56.411Z,19.73
2019-04-05T22:02:25.874Z,20.77
2019-04-05T22:04:55.228Z,20.20
2019-04-05T22:07:24.714Z,19.07
2019-04-05T22:09:54.054Z,20.47
2019-04-05T22:12:26.775Z,19.07
2019-04-05T22:14:55.970Z,20.60
2019-04-05T22:17:25.238Z,19.90
2019-04-05T22:19:54.698Z,20.53
2019-04-05T22:22:24.002Z,20.67
2019-04-05T22:24:59.142Z,19.60
2019-04-05T22:27:24.428Z,19.73
2019-04-05T22:29:53.756Z,20.00
2019-04-05T22:32:23.082Z,20.90
2019-04-05T22:34:52.429Z,20.63
2019-04-05T22:37:21.722Z,20.50
2019-04-05T22:39:51.051Z,20.63
2019-04-05T22:42:20.592Z,20.23
2019-04-05T22:44:49.902Z,20.70
2019-04-05T22:47:19.311Z,20.40
2019-04-05T22:49:48.715Z,20.63
2019-04-05T22:52:18.012Z,21.10
2019-04-05T22:54:47.322Z,22.13
2019-04-05T22:57:16.786Z,21.00
2019-04-05T22:59:46.107Z,20.60
2019-04-05T23:02:15.465Z,21.10
2019-04-05T23:04:44.915Z,20.80
2019-04-05T23:07:15.230Z,20.47
2019-04-05T23:09:44.558Z,22.43
2019-04-05T23:12:14.027Z,21.20
2019-04-05T23:14:43.396Z,20.80
2019-04-05T23:17:12.689Z,20.50
2019-04-05T23:19:42.070Z,21.07
2019-04-05T23:22:11.424Z,21.77
2019-04-05T23:24:40.753Z,21.97
2019-04-05T23:27:10.150Z,23.17
2019-04-05T23:29:39.492Z,23.10
2019-04-05T23:32:08.770Z,21.20
2019-04-05T23:34:38.303Z,22.07
2019-04-05T23:37:07.604Z,23.03
2019-04-05T23:39:36.923Z,23.47
2019-04-05T23:42:06.313Z,23.17
2019-04-05T23:44:35.623Z,23.53
2019-04-05T23:47:04.888Z,24.63
2019-04-05T23:49:34.410Z,23.77
2019-04-05T23:52:03.766Z,23.53
2019-04-05T23:54:33.047Z,23.60
2019-04-05T23:57:02.370Z,22.47
2019-04-05T23:59:31.645Z,24.57
